Time;durP1;ratioP1;P1;durP2;ratioP2;P2;SDS_P1;SDS_P2;PMS_P1;PMS_P2;Temp;Humidity;BMP_temperature;BMP_pressure;BME280_temperature;BME280_humidity;BME280_pressure;Samples;Min_cycle;Max_cycle;Signal;HPM_P1;HPM_P2
2023/03/17 00:00:15;;;;;;;;;;;8.10;99.90;;;;;;5079416;28;19943;-70
2023/03/17 00:02:44;;;;;;;;;;;8.10;99.90;;;;;;5070346;28;19924;-69
2023/03/17 00:05:34;;;;;;;;;;;8.10;99.90;;;;;;5069510;28;19970;-70
2023/03/17 00:08:03;;;;;;;;;;;8.20;99.90;;;;;;5057790;28;19968;-69
2023/03/17 00:10:28;;;;;;;;;;;8.20;99.90;;;;;;5083441;28;19979;-69
2023/03/17 00:12:54;;;;;;;;;;;8.20;99.90;;;;;;5071144;28;20392;-69
2023/03/17 00:15:25;;;;;;;;;;;8.30;99.90;;;;;;5072699;28;19925;-69
2023/03/17 00:17:53;;;;;;;;;;;8.30;99.90;;;;;;5080074;28;20357;-69
2023/03/17 00:20:19;;;;;;;;;;;8.20;99.90;;;;;;5090351;28;19928;-68
2023/03/17 00:22:45;;;;;;;;;;;8.30;99.90;;;;;;5072662;28;19946;-68
2023/03/17 00:25:16;;;;;;;;;;;8.30;99.90;;;;;;5080193;28;19924;-68
2023/03/17 00:27:42;;;;;;;;;;;8.20;99.90;;;;;;5080335;28;19947;-68
2023/03/17 00:30:09;;;;;;;;;;;8.30;99.90;;;;;;5090135;28;19931;-69
2023/03/17 00:32:35;;;;;;;;;;;8.30;99.90;;;;;;5075426;28;20377;-69
2023/03/17 00:35:04;;;;;;;;;;;8.30;99.90;;;;;;5084267;28;19928;-69
2023/03/17 00:37:30;;;;;;;;;;;8.20;99.90;;;;;;5063196;28;19993;-69
2023/03/17 00:39:55;;;;;;;;;;;8.20;99.90;;;;;;5076366;28;19924;-68
2023/03/17 00:42:22;;;;;;;;;;;8.20;99.90;;;;;;5093545;28;19924;-68
2023/03/17 00:44:47;;;;;;;;;;;8.20;99.90;;;;;;5089829;28;20274;-69
2023/03/17 00:47:13;;;;;;;;;;;8.10;99.90;;;;;;5084196;28;19928;-68
2023/03/17 00:49:38;;;;;;;;;;;8.20;99.90;;;;;;5078141;28;19982;-69
2023/03/17 00:52:05;;;;;;;;;;;8.20;99.90;;;;;;5094164;28;20400;-69
2023/03/17 00:54:30;;;;;;;;;;;8.20;99.90;;;;;;5075306;28;19924;-69
2023/03/17 00:56:56;;;;;;;;;;;8.20;99.90;;;;;;5071250;28;20543;-69
2023/03/17 00:59:21;;;;;;;;;;;8.30;99.90;;;;;;5064199;28;20340;-69
2023/03/17 01:01:47;;;;;;;;;;;8.30;99.90;;;;;;5055733;28;19928;-69
2023/03/17 01:04:14;;;;;;;;;;;8.30;99.90;;;;;;5055412;28;19925;-69
2023/03/17 01:06:40;;;;;;;;;;;8.20;99.90;;;;;;5072807;28;20010;-69
2023/03/17 01:09:07;;;;;;;;;;;8.20;99.90;;;;;;5066881;28;20023;-69
2023/03/17 01:11:32;;;;;;;;;;;8.20;99.90;;;;;;5072782;28;19924;-69
2023/03/17 01:13:58;;;;;;;;;;;8.30;99.90;;;;;;5073419;28;19925;-69
2023/03/17 01:16:23;;;;;;;;;;;8.30;99.90;;;;;;5055734;28;19935;-69
2023/03/17 01:18:49;;;;;;;;;;;8.30;99.90;;;;;;5058227;28;19938;-70
2023/03/17 01:21:14;;;;;;;;;;;8.30;99.90;;;;;;5059903;28;19924;-68
2023/03/17 01:23:40;;;;;;;;;;;8.40;99.90;;;;;;5073211;28;19925;-70
2023/03/17 01:26:06;;;;;;;;;;;8.40;99.90;;;;;;5073222;28;19935;-68
2023/03/17 01:28:32;;;;;;;;;;;8.40;99.90;;;;;;5071797;28;19925;-69
2023/03/17 01:30:58;;;;;;;;;;;8.40;99.90;;;;;;5072940;28;19929;-68
2023/03/17 01:33:24;;;;;;;;;;;8.40;99.90;;;;;;5072508;28;19924;-68
2023/03/17 01:35:50;;;;;;;;;;;8.40;99.90;;;;;;5072874;28;19985;-69
2023/03/17 01:38:16;;;;;;;;;;;8.40;99.90;;;;;;5060766;28;19932;-69
2023/03/17 01:40:51;;;;;;;;;;;8.40;99.90;;;;;;5072226;28;19935;-69
2023/03/17 01:43:20;;;;;;;;;;;8.30;99.90;;;;;;5070869;28;20259;-69
2023/03/17 01:46:05;;;;;;;;;;;8.30;99.90;;;;;;5054676;28;19932;-69
2023/03/17 01:48:36;;;;;;;;;;;8.40;99.90;;;;;;5055118;28;20381;-68
2023/03/17 01:51:03;;;;;;;;;;;8.30;99.90;;;;;;5053284;28;20395;-69
2023/03/17 01:53:28;;;;;;;;;;;8.30;99.90;;;;;;5072118;28;20094;-69
2023/03/17 01:55:55;;;;;;;;;;;8.30;99.90;;;;;;5054354;28;20011;-69
2023/03/17 01:58:23;;;;;;;;;;;8.30;99.90;;;;;;5071674;28;20289;-69
2023/03/17 02:00:49;;;;;;;;;;;8.20;99.90;;;;;;5072075;28;19936;-69
2023/03/17 02:03:15;;;;;;;;;;;8.30;99.90;;;;;;5072020;28;19946;-71
2023/03/17 02:05:41;;;;;;;;;;;8.40;99.90;;;;;;5072074;28;20385;-69
2023/03/17 02:08:10;;;;;;;;;;;8.40;99.90;;;;;;5072143;28;20015;-69
2023/03/17 02:10:37;;;;;;;;;;;8.40;99.90;;;;;;5060154;28;20278;-69
2023/03/17 02:13:04;;;;;;;;;;;8.30;99.90;;;;;;5071855;28;19939;-69
2023/03/17 02:15:38;;;;;;;;;;;8.30;99.90;;;;;;5070798;28;20324;-69
2023/03/17 02:18:03;;;;;;;;;;;8.30;99.90;;;;;;5072034;28;19925;-69
2023/03/17 02:20:29;;;;;;;;;;;8.30;99.90;;;;;;5070752;28;19947;-69
2023/03/17 02:22:56;;;;;;;;;;;8.30;99.90;;;;;;5072264;28;19924;-69
2023/03/17 02:25:23;;;;;;;;;;;8.30;99.90;;;;;;5053612;28;19934;-68
2023/03/17 02:27:50;;;;;;;;;;;8.30;99.90;;;;;;5071662;28;20348;-68
2023/03/17 02:30:18;;;;;;;;;;;8.20;99.90;;;;;;5071526;28;20305;-69
2023/03/17 02:32:43;;;;;;;;;;;8.20;99.90;;;;;;5070496;28;19964;-70
2023/03/17 02:35:09;;;;;;;;;;;8.20;99.90;;;;;;5044011;28;19967;-69
2023/03/17 02:37:35;;;;;;;;;;;8.20;99.90;;;;;;5071188;28;19935;-70
2023/03/17 02:40:01;;;;;;;;;;;8.20;99.90;;;;;;5071388;28;19928;-69
2023/03/17 02:42:27;;;;;;;;;;;8.10;99.90;;;;;;5070280;28;20286;-69
2023/03/17 02:44:53;;;;;;;;;;;8.10;99.90;;;;;;5056805;28;19951;-69
2023/03/17 02:47:19;;;;;;;;;;;8.10;99.90;;;;;;5053571;28;19936;-69
2023/03/17 02:49:45;;;;;;;;;;;8.10;99.90;;;;;;5056145;28;20271;-69
2023/03/17 02:52:10;;;;;;;;;;;8.10;99.90;;;;;;5071102;28;19924;-69
2023/03/17 02:54:36;;;;;;;;;;;8.10;99.90;;;;;;5056087;28;20316;-70
2023/03/17 02:57:02;;;;;;;;;;;8.10;99.90;;;;;;5078417;28;19924;-69
2023/03/17 02:59:28;;;;;;;;;;;8.10;99.90;;;;;;5082065;28;20011;-70
2023/03/17 03:01:55;;;;;;;;;;;8.10;99.90;;;;;;5070487;28;19928;-69
2023/03/17 03:04:21;;;;;;;;;;;8.10;99.90;;;;;;5073333;28;19931;-70
2023/03/17 03:06:47;;;;;;;;;;;8.10;99.90;;;;;;5072890;28;19932;-69
2023/03/17 03:09:13;;;;;;;;;;;8.10;99.90;;;;;;5085886;28;21660;-70
2023/03/17 03:11:39;;;;;;;;;;;8.10;99.90;;;;;;5064347;28;19994;-69
2023/03/17 03:14:05;;;;;;;;;;;8.10;99.90;;;;;;5077625;28;19990;-69
2023/03/17 03:16:30;;;;;;;;;;;8.00;99.90;;;;;;5072750;28;20053;-70
2023/03/17 03:18:56;;;;;;;;;;;8.00;99.90;;;;;;5090527;28;19974;-69
2023/03/17 03:21:22;;;;;;;;;;;8.00;99.90;;;;;;5080403;28;19934;-69
2023/03/17 03:23:48;;;;;;;;;;;8.00;99.90;;;;;;5062822;28;20680;-69
2023/03/17 03:26:13;;;;;;;;;;;8.00;99.90;;;;;;5089896;28;19924;-70
2023/03/17 03:28:39;;;;;;;;;;;8.00;99.90;;;;;;5072743;28;20400;-69
2023/03/17 03:31:05;;;;;;;;;;;8.00;99.90;;;;;;5066108;28;20100;-69
2023/03/17 03:33:30;;;;;;;;;;;8.00;99.90;;;;;;5086777;28;19931;-70
2023/03/17 03:35:56;;;;;;;;;;;7.90;99.90;;;;;;5085156;28;19934;-69
2023/03/17 03:38:22;;;;;;;;;;;7.90;99.90;;;;;;5085409;28;19931;-69
2023/03/17 03:40:48;;;;;;;;;;;7.90;99.90;;;;;;5069663;28;19932;-70
2023/03/17 03:43:13;;;;;;;;;;;7.90;99.90;;;;;;5056291;28;20394;-69
2023/03/17 03:45:39;;;;;;;;;;;7.90;99.90;;;;;;5072704;28;20007;-69
2023/03/17 03:48:04;;;;;;;;;;;7.90;99.90;;;;;;5069162;28;20281;-69
2023/03/17 03:50:30;;;;;;;;;;;7.90;99.90;;;;;;5090880;28;19924;-70
2023/03/17 03:52:56;;;;;;;;;;;7.90;99.90;;;;;;5087669;28;19940;-70
2023/03/17 03:55:22;;;;;;;;;;;7.90;99.90;;;;;;5084695;28;19974;-69
2023/03/17 03:57:47;;;;;;;;;;;7.90;99.90;;;;;;5090344;28;19946;-69
2023/03/17 04:00:13;;;;;;;;;;;7.90;99.90;;;;;;5056272;28;19924;-69
2023/03/17 04:02:45;;;;;;;;;;;7.90;99.90;;;;;;5067519;28;19924;-70
2023/03/17 04:05:12;;;;;;;;;;;7.90;99.90;;;;;;5060611;28;19928;-69
2023/03/17 04:07:38;;;;;;;;;;;7.90;99.90;;;;;;5075863;28;19970;-69
2023/03/17 04:10:04;;;;;;;;;;;7.90;99.90;;;;;;5094616;28;19982;-69
2023/03/17 04:12:30;;;;;;;;;;;7.90;99.90;;;;;;5072635;28;19972;-69
2023/03/17 04:14:55;;;;;;;;;;;7.90;99.90;;;;;;5086478;28;20381;-69
2023/03/17 04:17:21;;;;;;;;;;;7.90;99.90;;;;;;5078503;28;20011;-69
2023/03/17 04:19:46;;;;;;;;;;;7.90;99.90;;;;;;5075694;28;19947;-69
2023/03/17 04:22:12;;;;;;;;;;;7.90;99.90;;;;;;5094384;28;20262;-69
2023/03/17 04:24:38;;;;;;;;;;;7.90;99.90;;;;;;5078704;28;20646;-69
2023/03/17 04:27:03;;;;;;;;;;;7.90;99.90;;;;;;5075030;28;19982;-70
2023/03/17 04:29:30;;;;;;;;;;;7.90;99.90;;;;;;5094332;28;19954;-69
2023/03/17 04:31:55;;;;;;;;;;;7.90;99.90;;;;;;5094054;28;19988;-69
2023/03/17 04:34:21;;;;;;;;;;;7.90;99.90;;;;;;5084255;28;20011;-69
2023/03/17 04:36:47;;;;;;;;;;;7.90;99.90;;;;;;5087708;28;19928;-69
2023/03/17 04:39:13;;;;;;;;;;;7.90;99.90;;;;;;5090153;28;20400;-69
2023/03/17 04:41:39;;;;;;;;;;;7.80;99.90;;;;;;5091222;28;19946;-71
2023/03/17 04:44:05;;;;;;;;;;;7.80;99.90;;;;;;5063900;28;19970;-69
2023/03/17 04:46:31;;;;;;;;;;;7.80;99.90;;;;;;5055537;28;20353;-69
2023/03/17 04:48:56;;;;;;;;;;;7.80;99.90;;;;;;5073115;28;20011;-69
2023/03/17 04:51:22;;;;;;;;;;;7.80;99.90;;;;;;5073444;28;20000;-69
2023/03/17 04:53:48;;;;;;;;;;;7.80;99.90;;;;;;5055479;28;19931;-69
2023/03/17 04:56:15;;;;;;;;;;;7.80;99.90;;;;;;5073183;28;19924;-69
2023/03/17 04:58:40;;;;;;;;;;;7.70;99.90;;;;;;5072934;28;19928;-69
2023/03/17 05:01:07;;;;;;;;;;;7.70;99.90;;;;;;5073334;28;19934;-69
2023/03/17 05:03:33;;;;;;;;;;;7.70;99.90;;;;;;5072010;28;19924;-69
2023/03/17 05:05:59;;;;;;;;;;;7.70;99.90;;;;;;5071007;28;20393;-69
2023/03/17 05:08:27;;;;;;;;;;;7.70;99.90;;;;;;5077311;28;19929;-69
2023/03/17 05:10:53;;;;;;;;;;;7.60;99.90;;;;;;5093225;28;19959;-69
2023/03/17 05:13:19;;;;;;;;;;;7.70;99.90;;;;;;5083636;28;20464;-69
2023/03/17 05:15:49;;;;;;;;;;;7.70;99.90;;;;;;5076571;28;20019;-69
2023/03/17 05:18:15;;;;;;;;;;;7.70;99.90;;;;;;5071962;28;20267;-70
2023/03/17 05:20:40;;;;;;;;;;;7.70;99.90;;;;;;5072609;28;20016;-69
2023/03/17 05:23:06;;;;;;;;;;;7.70;99.90;;;;;;5054626;28;20045;-69
2023/03/17 05:25:32;;;;;;;;;;;7.70;99.90;;;;;;5055224;28;19932;-69
2023/03/17 05:27:57;;;;;;;;;;;7.80;99.90;;;;;;5060751;28;19971;-69
2023/03/17 05:30:24;;;;;;;;;;;7.80;99.90;;;;;;5072597;28;19924;-69
2023/03/17 05:32:50;;;;;;;;;;;7.80;99.90;;;;;;5072004;28;19932;-70
2023/03/17 05:35:16;;;;;;;;;;;7.80;99.90;;;;;;5055042;28;20172;-70
2023/03/17 05:37:42;;;;;;;;;;;7.80;99.90;;;;;;5056279;28;19994;-70
2023/03/17 05:40:08;;;;;;;;;;;7.80;99.90;;;;;;5072087;28;20377;-68
2023/03/17 05:42:34;;;;;;;;;;;7.80;99.90;;;;;;5072354;28;19928;-68
2023/03/17 05:44:59;;;;;;;;;;;7.80;99.90;;;;;;5071507;28;19934;-68
2023/03/17 05:47:25;;;;;;;;;;;7.80;99.90;;;;;;5071982;28;19940;-68
2023/03/17 05:49:51;;;;;;;;;;;7.80;99.90;;;;;;5054986;28;20406;-69
2023/03/17 05:52:17;;;;;;;;;;;7.80;99.90;;;;;;5072387;28;20010;-68
2023/03/17 05:54:43;;;;;;;;;;;7.80;99.90;;;;;;5071851;28;20011;-69
2023/03/17 05:57:09;;;;;;;;;;;7.90;99.90;;;;;;5071699;28;19924;-69
2023/03/17 05:59:35;;;;;;;;;;;7.90;99.90;;;;;;5071143;28;19924;-69
2023/03/17 06:02:01;;;;;;;;;;;7.90;99.90;;;;;;5075165;28;19951;-69
2023/03/17 06:04:27;;;;;;;;;;;8.00;99.90;;;;;;5092120;28;19924;-69
2023/03/17 06:06:52;;;;;;;;;;;8.00;99.90;;;;;;5084273;28;19924;-69
2023/03/17 06:09:18;;;;;;;;;;;8.00;99.90;;;;;;5064836;28;20459;-70
2023/03/17 06:11:44;;;;;;;;;;;8.00;99.90;;;;;;5092166;28;19924;-69
2023/03/17 06:14:10;;;;;;;;;;;8.00;99.90;;;;;;5091608;28;19984;-69
2023/03/17 06:16:35;;;;;;;;;;;8.00;99.90;;;;;;5089459;28;19932;-69
2023/03/17 06:19:01;;;;;;;;;;;8.00;99.90;;;;;;5086778;28;20395;-70
2023/03/17 06:21:27;;;;;;;;;;;8.10;99.90;;;;;;5074091;28;19947;-69
2023/03/17 06:23:53;;;;;;;;;;;8.10;99.90;;;;;;5077049;28;19928;-70
2023/03/17 06:26:18;;;;;;;;;;;8.10;99.90;;;;;;5053384;28;19935;-69
2023/03/17 06:28:44;;;;;;;;;;;8.10;99.90;;;;;;5071338;28;19924;-69
2023/03/17 06:31:09;;;;;;;;;;;8.20;99.90;;;;;;5070811;28;19960;-69
2023/03/17 06:33:35;;;;;;;;;;;8.20;99.90;;;;;;5066602;28;20297;-70
2023/03/17 06:36:02;;;;;;;;;;;8.20;99.90;;;;;;5049142;28;19924;-69
2023/03/17 06:38:27;;;;;;;;;;;8.20;99.90;;;;;;5053834;28;20398;-69
2023/03/17 06:40:53;;;;;;;;;;;8.30;99.90;;;;;;5071163;28;19935;-69
2023/03/17 06:43:18;;;;;;;;;;;8.30;99.90;;;;;;5070743;28;19972;-69
2023/03/17 06:45:45;;;;;;;;;;;8.30;99.90;;;;;;5070973;28;19925;-69
2023/03/17 06:48:11;;;;;;;;;;;8.40;99.90;;;;;;5029483;28;19990;-69
2023/03/17 06:50:36;;;;;;;;;;;8.40;99.90;;;;;;5060670;28;19936;-69
2023/03/17 06:53:02;;;;;;;;;;;8.40;99.90;;;;;;5054018;28;19960;-69
2023/03/17 06:55:28;;;;;;;;;;;8.40;99.90;;;;;;5054790;28;19976;-69
2023/03/17 06:57:54;;;;;;;;;;;8.50;99.90;;;;;;5055553;28;20342;-69
2023/03/17 07:00:21;;;;;;;;;;;8.50;99.90;;;;;;5070982;28;19928;-69
2023/03/17 07:02:46;;;;;;;;;;;8.50;99.90;;;;;;5064949;28;20001;-69
2023/03/17 07:05:13;;;;;;;;;;;8.60;99.90;;;;;;5080144;28;20000;-72
2023/03/17 07:07:39;;;;;;;;;;;8.70;99.90;;;;;;5054758;28;19929;-68
2023/03/17 07:10:05;;;;;;;;;;;8.70;99.90;;;;;;5052261;28;19932;-69
2023/03/17 07:12:31;;;;;;;;;;;8.80;99.90;;;;;;5070795;28;19925;-68
2023/03/17 07:14:58;;;;;;;;;;;8.80;99.90;;;;;;5057335;28;19935;-68
2023/03/17 07:17:24;;;;;;;;;;;8.80;99.90;;;;;;5070380;28;19932;-68
2023/03/17 07:19:49;;;;;;;;;;;8.80;99.90;;;;;;5052682;28;19928;-68
2023/03/17 07:22:15;;;;;;;;;;;8.80;99.90;;;;;;5069818;28;19929;-68
2023/03/17 07:24:41;;;;;;;;;;;8.80;99.90;;;;;;5070366;28;20024;-68
2023/03/17 07:27:07;;;;;;;;;;;8.80;99.90;;;;;;5070001;28;20340;-68
2023/03/17 07:29:33;;;;;;;;;;;8.80;99.90;;;;;;5070692;28;19971;-67
2023/03/17 07:31:59;;;;;;;;;;;8.80;99.90;;;;;;5070340;28;19932;-68
2023/03/17 07:34:25;;;;;;;;;;;8.90;99.90;;;;;;5069641;28;20048;-68
2023/03/17 07:36:51;;;;;;;;;;;9.00;99.90;;;;;;5052488;28;20417;-68
2023/03/17 07:39:16;;;;;;;;;;;9.00;99.90;;;;;;5059608;28;19933;-68
2023/03/17 07:41:43;;;;;;;;;;;9.20;99.90;;;;;;5070237;28;19972;-67
2023/03/17 07:44:10;;;;;;;;;;;9.60;99.90;;;;;;5069791;28;20301;-68
2023/03/17 07:46:37;;;;;;;;;;;10.10;99.90;;;;;;5073568;28;19950;-68
2023/03/17 07:49:02;;;;;;;;;;;10.80;99.90;;;;;;5077794;28;19964;-68
2023/03/17 07:51:28;;;;;;;;;;;11.70;99.90;;;;;;5052073;28;19963;-68
2023/03/17 07:54:02;;;;;;;;;;;12.30;99.90;;;;;;5070283;28;19931;-67
2023/03/17 07:56:28;;;;;;;;;;;12.70;99.90;;;;;;5067714;28;19982;-67
2023/03/17 07:58:53;;;;;;;;;;;13.10;99.90;;;;;;5070562;28;19929;-67
2023/03/17 08:01:19;;;;;;;;;;;13.10;99.90;;;;;;5070062;28;19929;-67
2023/03/17 08:03:44;;;;;;;;;;;12.80;99.90;;;;;;5086879;28;19924;-68
2023/03/17 08:06:10;;;;;;;;;;;12.50;99.90;;;;;;5070142;28;20010;-68
2023/03/17 08:08:36;;;;;;;;;;;12.20;99.90;;;;;;5070472;28;19928;-68
2023/03/17 08:11:03;;;;;;;;;;;12.10;99.90;;;;;;5070541;28;19925;-69
2023/03/17 08:13:29;;;;;;;;;;;12.00;99.90;;;;;;5069882;28;20024;-68
2023/03/17 08:15:55;;;;;;;;;;;11.80;99.90;;;;;;5058415;28;19924;-67
2023/03/17 08:18:21;;;;;;;;;;;11.70;99.90;;;;;;5068581;28;19974;-67
2023/03/17 08:20:47;;;;;;;;;;;11.70;99.90;;;;;;5065494;28;20290;-68
2023/03/17 08:23:13;;;;;;;;;;;11.70;99.90;;;;;;5061961;28;19925;-69
2023/03/17 08:25:39;;;;;;;;;;;11.60;99.90;;;;;;5065897;28;19931;-68
2023/03/17 08:28:04;;;;;;;;;;;11.40;99.90;;;;;;5060341;28;19967;-68
2023/03/17 08:30:30;;;;;;;;;;;11.30;99.90;;;;;;5063311;28;20141;-68
2023/03/17 08:32:56;;;;;;;;;;;11.20;99.90;;;;;;5035626;28;19928;-69
2023/03/17 08:35:22;;;;;;;;;;;11.20;99.90;;;;;;5069679;28;19951;-68
2023/03/17 08:37:48;;;;;;;;;;;11.10;99.90;;;;;;5055066;28;20156;-68
2023/03/17 08:40:18;;;;;;;;;;;11.00;99.90;;;;;;5069658;28;19935;-68
2023/03/17 08:42:44;;;;;;;;;;;10.90;99.90;;;;;;5069513;28;20361;-66
2023/03/17 08:45:11;;;;;;;;;;;10.80;99.90;;;;;;5069952;28;19934;-67
2023/03/17 08:47:37;;;;;;;;;;;10.80;99.90;;;;;;5069130;28;19924;-67
2023/03/17 08:50:04;;;;;;;;;;;10.70;99.90;;;;;;5068866;28;19931;-68
2023/03/17 08:52:29;;;;;;;;;;;10.70;99.90;;;;;;5056784;28;19925;-68
2023/03/17 08:54:55;;;;;;;;;;;10.70;99.90;;;;;;5060541;28;19935;-67
2023/03/17 08:57:21;;;;;;;;;;;10.70;99.90;;;;;;5060541;28;19924;-67
2023/03/17 08:59:47;;;;;;;;;;;10.80;99.90;;;;;;5075207;28;19928;-67
2023/03/17 09:02:13;;;;;;;;;;;10.90;99.90;;;;;;5076551;28;20638;-68
2023/03/17 09:04:40;;;;;;;;;;;11.00;99.90;;;;;;5060073;28;19999;-67
2023/03/17 09:07:05;;;;;;;;;;;11.20;99.90;;;;;;5091592;28;20063;-68
2023/03/17 09:09:33;;;;;;;;;;;11.40;99.90;;;;;;5080208;28;20270;-67
2023/03/17 09:11:59;;;;;;;;;;;11.70;99.90;;;;;;5072140;28;19932;-69
2023/03/17 09:14:24;;;;;;;;;;;12.10;99.90;;;;;;5071458;28;19932;-66
2023/03/17 09:16:51;;;;;;;;;;;12.40;99.90;;;;;;5054755;28;19924;-69
2023/03/17 09:19:16;;;;;;;;;;;12.60;99.90;;;;;;5072820;28;19970;-69
2023/03/17 09:21:42;;;;;;;;;;;12.90;99.90;;;;;;5062842;28;19932;-68
2023/03/17 09:24:08;;;;;;;;;;;13.00;99.90;;;;;;5072940;28;19932;-68
2023/03/17 09:26:35;;;;;;;;;;;13.20;99.90;;;;;;5072713;28;19977;-68
2023/03/17 09:29:00;;;;;;;;;;;13.30;99.90;;;;;;5073101;28;19950;-68
2023/03/17 09:31:26;;;;;;;;;;;13.30;99.90;;;;;;5058715;28;19928;-68
2023/03/17 09:33:52;;;;;;;;;;;13.20;99.90;;;;;;5072682;28;19966;-68
2023/03/17 09:36:18;;;;;;;;;;;13.10;99.90;;;;;;5073253;28;19931;-68
2023/03/17 09:38:44;;;;;;;;;;;13.20;99.90;;;;;;5054584;28;20278;-68
2023/03/17 09:41:22;;;;;;;;;;;13.20;99.90;;;;;;5072317;28;19928;-68
2023/03/17 09:44:03;;;;;;;;;;;13.30;99.90;;;;;;5072590;28;19925;-68
2023/03/17 09:46:31;;;;;;;;;;;13.30;99.90;;;;;;5072213;28;20037;-69
2023/03/17 09:49:06;;;;;;;;;;;13.50;99.90;;;;;;5054851;28;20017;-69
2023/03/17 09:51:32;;;;;;;;;;;13.60;99.90;;;;;;5071992;28;19950;-68
2023/03/17 09:54:01;;;;;;;;;;;13.70;99.90;;;;;;5059893;28;19928;-69
2023/03/17 09:56:29;;;;;;;;;;;13.80;99.90;;;;;;5072286;28;20282;-69
2023/03/17 09:59:05;;;;;;;;;;;13.80;99.90;;;;;;5054264;28;19935;-69
2023/03/17 10:01:31;;;;;;;;;;;13.90;99.90;;;;;;5071891;28;19964;-68
2023/03/17 10:03:57;;;;;;;;;;;14.10;99.90;;;;;;5073176;28;19989;-68
2023/03/17 10:06:34;;;;;;;;;;;14.10;99.90;;;;;;5084207;28;19927;-69
2023/03/17 10:09:06;;;;;;;;;;;14.10;99.90;;;;;;5087231;28;20343;-68
2023/03/17 10:11:38;;;;;;;;;;;14.00;99.90;;;;;;5084000;28;19950;-67
2023/03/17 10:14:17;;;;;;;;;;;13.90;99.90;;;;;;5080089;28;19924;-67
2023/03/17 10:16:42;;;;;;;;;;;13.90;99.90;;;;;;5084798;28;19974;-67
2023/03/17 10:19:11;;;;;;;;;;;13.90;99.90;;;;;;5088417;28;19932;-67
2023/03/17 10:21:41;;;;;;;;;;;14.10;99.90;;;;;;5083053;28;19931;-70
2023/03/17 10:24:09;;;;;;;;;;;14.30;99.90;;;;;;5064267;28;19936;-67
2023/03/17 10:26:43;;;;;;;;;;;14.40;99.90;;;;;;5084491;28;19928;-68
2023/03/17 10:29:24;;;;;;;;;;;14.40;99.90;;;;;;5073245;28;19953;-68
2023/03/17 10:31:50;;;;;;;;;;;14.40;99.90;;;;;;5056226;28;20310;-66
2023/03/17 10:34:18;;;;;;;;;;;14.50;99.90;;;;;;5065786;28;19935;-66
2023/03/17 10:36:50;;;;;;;;;;;14.50;99.90;;;;;;5080315;28;20247;-67
2023/03/17 10:39:18;;;;;;;;;;;14.50;99.90;;;;;;5071720;28;19928;-66
2023/03/17 10:41:53;;;;;;;;;;;14.60;99.90;;;;;;5038170;28;20433;-67
2023/03/17 10:44:28;;;;;;;;;;;14.60;99.90;;;;;;5037966;28;20352;-68
2023/03/17 10:46:54;;;;;;;;;;;14.60;99.90;;;;;;5070876;28;19935;-67
2023/03/17 10:49:22;;;;;;;;;;;14.70;99.90;;;;;;5071250;28;19924;-67
2023/03/17 10:51:49;;;;;;;;;;;14.70;99.90;;;;;;5070661;28;19932;-67
2023/03/17 10:54:17;;;;;;;;;;;14.80;99.90;;;;;;5053519;28;20033;-66
2023/03/17 10:56:44;;;;;;;;;;;14.90;99.90;;;;;;5063482;28;19958;-69
2023/03/17 10:59:17;;;;;;;;;;;14.90;99.90;;;;;;5070714;28;19929;-66
2023/03/17 11:01:48;;;;;;;;;;;15.00;99.90;;;;;;5071765;28;19924;-66
2023/03/17 11:04:26;;;;;;;;;;;15.00;99.90;;;;;;5091856;28;20011;-66
2023/03/17 11:06:53;;;;;;;;;;;15.10;99.90;;;;;;5070749;28;19924;-65
2023/03/17 11:09:20;;;;;;;;;;;15.20;99.90;;;;;;5086343;28;19959;-68
2023/03/17 11:11:59;;;;;;;;;;;15.40;99.90;;;;;;5068292;28;19928;-68
2023/03/17 11:14:27;;;;;;;;;;;15.40;99.90;;;;;;5066916;28;20011;-66
2023/03/17 11:16:58;;;;;;;;;;;15.40;99.90;;;;;;5075990;28;19929;-69
2023/03/17 11:19:36;;;;;;;;;;;15.50;99.90;;;;;;5082321;28;19934;-67
2023/03/17 11:22:03;;;;;;;;;;;15.60;99.90;;;;;;5082938;28;20050;-67
2023/03/17 11:24:35;;;;;;;;;;;15.70;99.90;;;;;;5091586;28;19928;-67
2023/03/17 11:27:01;;;;;;;;;;;15.80;99.90;;;;;;5077714;28;19929;-68
2023/03/17 11:29:29;;;;;;;;;;;15.80;99.90;;;;;;5068943;28;20403;-68
2023/03/17 11:32:14;;;;;;;;;;;15.90;99.90;;;;;;5056649;28;20467;-67
2023/03/17 11:34:46;;;;;;;;;;;15.90;99.90;;;;;;5075531;28;19927;-68
2023/03/17 11:37:22;;;;;;;;;;;15.90;99.90;;;;;;5080362;28;19932;-67
2023/03/17 11:40:01;;;;;;;;;;;16.00;99.90;;;;;;5061912;28;19928;-67
2023/03/17 11:42:50;;;;;;;;;;;16.00;99.90;;;;;;5085474;28;19925;-67
2023/03/17 11:45:27;;;;;;;;;;;16.00;99.90;;;;;;5070180;28;19940;-67
2023/03/17 11:48:12;;;;;;;;;;;16.10;99.90;;;;;;5077278;28;19972;-67
2023/03/17 11:50:44;;;;;;;;;;;16.00;99.90;;;;;;5091187;28;19924;-68
2023/03/17 11:53:26;;;;;;;;;;;16.10;99.90;;;;;;5091030;28;19928;-67
2023/03/17 11:56:03;;;;;;;;;;;16.10;99.90;;;;;;5065792;28;20019;-68
2023/03/17 11:58:37;;;;;;;;;;;16.20;99.90;;;;;;5082538;28;20293;-68
2023/03/17 12:01:07;;;;;;;;;;;16.20;99.90;;;;;;5072529;28;19924;-68
2023/03/17 12:03:52;;;;;;;;;;;16.30;99.90;;;;;;5073279;28;19967;-67
2023/03/17 12:06:24;;;;;;;;;;;16.30;99.90;;;;;;5081499;28;20301;-67
2023/03/17 12:08:53;;;;;;;;;;;16.30;99.90;;;;;;5079515;28;19928;-67
2023/03/17 12:11:21;;;;;;;;;;;16.30;99.90;;;;;;5073216;28;19954;-67
2023/03/17 12:14:06;;;;;;;;;;;16.30;99.90;;;;;;5072195;28;19949;-67
2023/03/17 12:16:37;;;;;;;;;;;16.30;99.90;;;;;;5058408;28;20302;-67
2023/03/17 12:19:02;;;;;;;;;;;16.40;99.90;;;;;;5078091;28;20030;-67
2023/03/17 12:21:31;;;;;;;;;;;16.30;99.90;;;;;;5080808;28;20376;-67
2023/03/17 12:23:57;;;;;;;;;;;16.30;99.90;;;;;;5072420;28;19931;-68
2023/03/17 12:26:32;;;;;;;;;;;16.30;99.90;;;;;;5069056;28;19932;-68
2023/03/17 12:28:57;;;;;;;;;;;16.30;99.90;;;;;;5072568;28;19960;-68
2023/03/17 12:31:31;;;;;;;;;;;16.40;99.90;;;;;;5093398;28;19970;-68
2023/03/17 12:34:17;;;;;;;;;;;16.40;99.90;;;;;;5093753;28;20373;-68
2023/03/17 12:36:43;;;;;;;;;;;16.30;99.90;;;;;;5054749;28;19929;-68
2023/03/17 12:39:12;;;;;;;;;;;16.30;99.90;;;;;;5087386;28;20284;-68
2023/03/17 12:41:56;;;;;;;;;;;16.30;99.90;;;;;;5082178;28;19969;-68
2023/03/17 12:44:36;;;;;;;;;;;16.40;99.90;;;;;;5094290;28;20474;-68
2023/03/17 12:47:02;;;;;;;;;;;16.40;99.90;;;;;;5084586;28;19975;-68
2023/03/17 12:49:34;;;;;;;;;;;16.50;99.90;;;;;;5075911;28;20317;-68
2023/03/17 12:52:19;;;;;;;;;;;16.60;99.90;;;;;;5082916;28;19928;-68
2023/03/17 12:54:47;;;;;;;;;;;16.70;99.90;;;;;;5059665;28;19928;-68
2023/03/17 12:57:21;;;;;;;;;;;16.70;99.90;;;;;;5094121;28;19928;-68
2023/03/17 12:59:48;;;;;;;;;;;16.70;99.90;;;;;;5074702;28;20428;-68
2023/03/17 13:02:16;;;;;;;;;;;16.80;99.90;;;;;;5082869;28;19928;-68
2023/03/17 13:04:56;;;;;;;;;;;16.90;99.90;;;;;;5094139;28;19989;-68
2023/03/17 13:07:25;;;;;;;;;;;16.90;99.90;;;;;;5084456;28;19924;-68
2023/03/17 13:09:54;;;;;;;;;;;16.90;99.90;;;;;;5087404;28;20377;-68
2023/03/17 13:12:38;;;;;;;;;;;17.00;99.90;;;;;;5047829;28;19924;-68
2023/03/17 13:15:20;;;;;;;;;;;16.90;99.90;;;;;;5092449;28;20019;-68
2023/03/17 13:17:46;;;;;;;;;;;16.90;99.90;;;;;;5093881;28;19974;-68
2023/03/17 13:20:16;;;;;;;;;;;16.90;99.90;;;;;;5081292;28;19967;-67
2023/03/17 13:22:59;;;;;;;;;;;16.90;99.90;;;;;;5071119;28;19924;-67
2023/03/17 13:25:29;;;;;;;;;;;16.90;99.90;;;;;;5047055;28;19932;-67
2023/03/17 13:28:14;;;;;;;;;;;16.90;99.90;;;;;;5093216;28;19928;-68
2023/03/17 13:30:42;;;;;;;;;;;16.90;99.90;;;;;;5084886;28;19944;-67
2023/03/17 13:33:12;;;;;;;;;;;16.80;99.90;;;;;;5088731;28;19973;-67
2023/03/17 13:35:43;;;;;;;;;;;16.70;99.90;;;;;;5083738;28;20003;-67
2023/03/17 13:38:27;;;;;;;;;;;16.70;99.90;;;;;;5087767;28;19928;-67
2023/03/17 13:41:12;;;;;;;;;;;16.60;99.90;;;;;;5066932;28;20274;-67
2023/03/17 13:43:43;;;;;;;;;;;16.60;99.90;;;;;;5092085;28;19977;-65
2023/03/17 13:46:29;;;;;;;;;;;16.50;99.90;;;;;;5074784;28;20388;-65
2023/03/17 13:48:55;;;;;;;;;;;16.50;99.90;;;;;;5061501;28;20334;-66
2023/03/17 13:51:26;;;;;;;;;;;16.60;99.90;;;;;;5072279;28;19983;-66
2023/03/17 13:53:54;;;;;;;;;;;16.50;99.90;;;;;;5072830;28;20003;-65
2023/03/17 13:56:44;;;;;;;;;;;16.50;99.90;;;;;;5072204;28;19978;-65
2023/03/17 13:59:19;;;;;;;;;;;16.60;99.90;;;;;;5064116;28;19928;-65
2023/03/17 14:01:52;;;;;;;;;;;16.60;99.90;;;;;;5062405;28;19925;-65
2023/03/17 14:04:25;;;;;;;;;;;16.70;99.90;;;;;;5085380;28;19935;-65
2023/03/17 14:06:52;;;;;;;;;;;16.70;99.90;;;;;;5074814;28;19978;-66
2023/03/17 14:09:36;;;;;;;;;;;16.60;99.90;;;;;;5064205;28;20001;-64
2023/03/17 14:12:14;;;;;;;;;;;16.70;99.90;;;;;;5071467;28;19925;-65
2023/03/17 14:14:51;;;;;;;;;;;16.70;99.90;;;;;;5072469;28;19930;-65
2023/03/17 14:17:26;;;;;;;;;;;16.70;99.90;;;;;;5054048;28;20306;-65
2023/03/17 14:20:06;;;;;;;;;;;16.60;99.90;;;;;;5065861;28;19936;-67
2023/03/17 14:22:37;;;;;;;;;;;16.60;99.90;;;;;;5068447;28;20082;-68
2023/03/17 14:25:07;;;;;;;;;;;16.60;99.90;;;;;;5052930;28;19925;-67
2023/03/17 14:27:33;;;;;;;;;;;16.50;99.90;;;;;;5062430;28;19928;-66
2023/03/17 14:30:04;;;;;;;;;;;16.50;99.90;;;;;;5077373;28;19928;-67